KFSM/FSM METAR and TAF weather

Enter ICAO airport designator
Station Type Date Time Source
KFSM METAR 2021/04/13 22:53 UTC NOAA

KFSM 132253Z 10006KT 10SM SCT075 23/09 A3003 RMK AO2 SLP165 T02280089


Station Type Date Time Source
KFSM Decoded METAR 2021/04/13 22:53 UTC NOAA

FORT SMITH REGIONAL AIRPORT, AR, United States (KFSM) 35-20N 94-22W 140M
Apr 13, 2021 - 06:53 PM EDT / 2021.04.13 2253 UTC
Wind: from the E (100 degrees) at 7 MPH (6 KT):0
Visibility: 10 mile(s):0
Sky conditions: partly cloudy
Temperature: 73.0 F (22.8 C)
Dew Point: 48.0 F (8.9 C)
Relative Humidity: 41%
Pressure (altimeter): 30.03 in. Hg (1016 hPa)
ob: KFSM 132253Z 10006KT 10SM SCT075 23/09 A3003 RMK AO2 SLP165 T02280089
cycle: 23

Station Type Date Time Source
KFSM TAF 2021/04/13 18:27 UTC NOAA

TAF KFSM 131725Z 1318/1418 06012KT P6SM BKN250
FM140400 04010KT P6SM VCSH OVC050
TEMPO 1409/1413 3SM -TSRA OVC025CB
FM141600 05009KT P6SM BKN050

Example: see airport list